トビリシ の空港の天気 - METARとTAF

トビリシ国際空港 ( UGTB / TBS ) - グルジア トビリシ
飛行場実況気象(Metar)
観測時間02/28 00:30 +04 (02/27 20:30 UTC)
風向・風速北西 2m/s
視程10km以上
天気現象
なし
気温4℃
湿度65%
気圧1024hPa
METARUGTB 272030Z 32003KT CAVOK 04/M02 Q1024 R31L/CLRD70 NOSIG
過去の天気等 Google飛行場航空写真 Wunderground天気予報

過去48時間のMETAR

飛行場予報(TAF)
発表時間: 2/27 21:00 +04 (2/27 17:00 UTC)
予報対象時間: 27日22時 +04 ~ 28日22時 +04
風向・風速不定 1m/s
視程10km以上
なし
28日2時 +04 ~ 28日7時 +04 に一時的に
風向・風速北西 6m/s
28日7時 +04 ~ 28日11時 +04 に 確率 40% で一時的に
視程3,000m
天気現象もや
全天の4割程度の雲 雲底高度 430m
全天の8割程度の雲 雲底高度 610m
TAF UGTB 271700Z 2718/2818 VRB02KT CAVOK TX15/2812Z TN00/2802Z
TEMPO 2722/2803 32012KT
PROB40 TEMPO 2803/2807 3000 BR SCT014 BKN020